Time;durP1;ratioP1;P1;durP2;ratioP2;P2;SDS_P1;SDS_P2;PMS_P1;PMS_P2;Temp;Humidity;BMP_temperature;BMP_pressure;BME280_temperature;BME280_humidity;BME280_pressure;Samples;Min_cycle;Max_cycle;Signal;HPM_P1;HPM_P2
2022/11/16 00:01:49;;;;;;;9.23;5.63;;;11.00;99.90;;;;;;5037265;28;20509;-76
2022/11/16 00:04:15;;;;;;;9.30;6.07;;;11.10;99.90;;;;;;5035025;28;20045;-76
2022/11/16 00:06:40;;;;;;;10.90;6.60;;;11.10;99.90;;;;;;5037928;28;20045;-76
2022/11/16 00:09:22;;;;;;;8.10;5.88;;;11.00;99.90;;;;;;5039240;28;20474;-76
2022/11/16 00:11:53;;;;;;;9.25;6.25;;;11.00;99.90;;;;;;5055952;28;20517;-76
2022/11/16 00:14:20;;;;;;;10.87;6.77;;;11.10;99.90;;;;;;5033124;28;20037;-76
2022/11/16 00:16:46;;;;;;;9.63;6.22;;;11.10;99.90;;;;;;5048302;28;20272;-76
2022/11/16 00:19:12;;;;;;;7.63;5.78;;;11.00;99.90;;;;;;5033495;28;20541;-76
2022/11/16 00:21:38;;;;;;;8.48;6.07;;;11.10;99.90;;;;;;5047164;28;20123;-76
2022/11/16 00:24:04;;;;;;;9.40;5.88;;;11.10;99.90;;;;;;5018827;28;20044;-76
2022/11/16 00:26:30;;;;;;;8.65;6.63;;;11.00;99.90;;;;;;5034501;28;20091;-76
2022/11/16 00:28:55;;;;;;;11.40;6.63;;;11.10;99.90;;;;;;5050511;28;20044;-76
2022/11/16 00:31:22;;;;;;;9.20;6.55;;;11.10;99.90;;;;;;5047303;28;20546;-75
2022/11/16 00:33:48;;;;;;;12.05;6.95;;;11.10;99.90;;;;;;5050186;28;20032;-75
2022/11/16 00:36:15;;;;;;;9.57;6.50;;;11.10;99.90;;;;;;5056281;28;20090;-76
2022/11/16 00:38:41;;;;;;;10.30;6.82;;;11.10;99.90;;;;;;5045012;28;20040;-76
2022/11/16 00:41:08;;;;;;;9.68;6.78;;;11.10;99.90;;;;;;5037835;28;20086;-76
2022/11/16 00:43:34;;;;;;;10.70;6.68;;;11.00;99.90;;;;;;5047975;28;20045;-76
2022/11/16 00:46:00;;;;;;;9.18;6.90;;;11.10;99.90;;;;;;5054386;28;20037;-75
2022/11/16 00:48:26;;;;;;;12.73;7.93;;;11.10;99.90;;;;;;5051507;28;20160;-76
2022/11/16 00:50:51;;;;;;;11.00;6.88;;;11.10;99.90;;;;;;5058648;28;20044;-75
2022/11/16 00:53:18;;;;;;;10.63;6.95;;;11.10;99.90;;;;;;5041022;28;20128;-76
2022/11/16 00:55:45;;;;;;;11.07;7.68;;;11.00;99.90;;;;;;5033752;28;20052;-76
2022/11/16 00:58:11;;;;;;;8.52;6.93;;;11.10;99.90;;;;;;5044192;28;20580;-76
2022/11/16 01:00:37;;;;;;;9.15;7.07;;;11.10;99.90;;;;;;5040332;28;20043;-76
2022/11/16 01:03:03;;;;;;;10.43;7.82;;;11.10;99.90;;;;;;5027935;28;20388;-76
2022/11/16 01:05:29;;;;;;;11.90;7.70;;;11.10;99.90;;;;;;5051399;28;20287;-76
2022/11/16 01:07:56;;;;;;;11.48;7.80;;;11.10;99.90;;;;;;5050541;28;20051;-75
2022/11/16 01:10:22;;;;;;;11.85;7.70;;;11.10;99.90;;;;;;5022232;28;20048;-75
2022/11/16 01:12:49;;;;;;;11.43;8.07;;;11.10;99.90;;;;;;5052184;28;20112;-75
2022/11/16 01:15:16;;;;;;;13.07;8.98;;;11.10;99.90;;;;;;5054535;28;20044;-76
2022/11/16 01:17:42;;;;;;;12.45;8.38;;;11.10;99.90;;;;;;5044234;28;20069;-75
2022/11/16 01:20:14;;;;;;;12.82;8.45;;;11.10;99.90;;;;;;5042464;28;20079;-76
2022/11/16 01:22:40;;;;;;;11.07;7.97;;;11.10;99.90;;;;;;5040002;28;20041;-75
2022/11/16 01:25:07;;;;;;;11.45;8.27;;;11.10;99.90;;;;;;5050265;28;20033;-75
2022/11/16 01:27:32;;;;;;;11.70;8.32;;;11.10;99.90;;;;;;5030596;28;20037;-75
2022/11/16 01:29:58;;;;;;;12.23;8.57;;;11.10;99.90;;;;;;5033166;28;20032;-75
2022/11/16 01:32:24;;;;;;;12.05;8.45;;;11.10;99.90;;;;;;5058722;28;20043;-76
2022/11/16 01:34:49;;;;;;;11.07;8.82;;;11.10;99.90;;;;;;5054973;28;20112;-75
2022/11/16 01:37:16;;;;;;;11.55;9.05;;;11.10;99.90;;;;;;5050440;28;20079;-76
2022/11/16 01:39:42;;;;;;;13.30;9.20;;;11.10;99.90;;;;;;5033456;28;20040;-75
2022/11/16 01:42:16;;;;;;;14.23;8.70;;;11.20;99.90;;;;;;5016686;28;20045;-75
2022/11/16 01:44:42;;;;;;;15.10;8.98;;;11.10;99.90;;;;;;5050731;28;20041;-76
2022/11/16 01:47:10;;;;;;;14.35;9.63;;;11.10;99.90;;;;;;5025195;28;20060;-75
2022/11/16 01:49:42;;;;;;;14.32;9.35;;;11.20;99.90;;;;;;5035475;28;20401;-75
2022/11/16 01:52:12;;;;;;;11.52;8.88;;;11.10;99.90;;;;;;5042612;28;20045;-75
2022/11/16 01:54:40;;;;;;;11.85;8.65;;;11.10;99.90;;;;;;5051722;28;20029;-75
2022/11/16 01:57:10;;;;;;;14.82;9.45;;;11.20;99.90;;;;;;5044860;28;20032;-75
2022/11/16 01:59:36;;;;;;;13.82;9.73;;;11.20;99.90;;;;;;5033025;28;20041;-75
2022/11/16 02:02:02;;;;;;;13.25;9.07;;;11.20;99.90;;;;;;5028834;28;20139;-75
2022/11/16 02:04:28;;;;;;;13.80;9.82;;;11.20;99.90;;;;;;5050778;28;20041;-76
2022/11/16 02:07:22;;;;;;;12.20;9.35;;;11.20;99.90;;;;;;5030706;28;20041;-75
2022/11/16 02:10:12;;;;;;;13.52;8.80;;;11.20;99.90;;;;;;5032192;28;20064;-75
2022/11/16 02:13:10;;;;;;;12.65;9.38;;;11.20;99.90;;;;;;5040934;28;20099;-75
2022/11/16 02:15:56;;;;;;;13.60;9.18;;;11.20;99.90;;;;;;5050255;28;20504;-75
2022/11/16 02:18:42;;;;;;;13.88;9.38;;;11.20;99.90;;;;;;5030914;28;20143;-75
2022/11/16 02:21:17;;;;;;;14.23;9.75;;;11.20;99.90;;;;;;5057971;28;20409;-75
2022/11/16 02:24:01;;;;;;;17.30;9.32;;;11.20;99.90;;;;;;5050286;28;20045;-75
2022/11/16 02:27:04;;;;;;;13.25;9.32;;;11.60;99.90;;;;;;5032361;28;20051;-75
2022/11/16 02:29:38;;;;;;;12.15;8.80;;;11.20;99.90;;;;;;5035040;28;20053;-75
2022/11/16 02:32:33;;;;;;;12.13;8.98;;;11.20;99.90;;;;;;5056693;28;20041;-75
2022/11/16 02:35:29;;;;;;;15.32;9.88;;;11.20;99.90;;;;;;5026113;28;20041;-75
2022/11/16 02:38:00;;;;;;;11.70;8.90;;;11.20;99.90;;;;;;5062356;28;20045;-75
2022/11/16 02:40:30;;;;;;;14.75;9.60;;;11.20;99.90;;;;;;5038197;28;20041;-75
2022/11/16 02:43:07;;;;;;;14.55;9.05;;;11.20;99.90;;;;;;5053033;28;20513;-76
2022/11/16 02:45:36;;;;;;;15.65;9.15;;;11.20;99.90;;;;;;5050402;28;20041;-76
2022/11/16 02:48:09;;;;;;;13.05;9.13;;;11.20;99.90;;;;;;5045206;28;20037;-76
2022/11/16 02:50:35;;;;;;;;;;;11.20;99.90;;;;;;5058169;28;20033;-76
2022/11/16 02:53:02;;;;;;;13.40;8.77;;;11.20;99.90;;;;;;5043396;28;19927;-76
2022/11/16 02:55:31;;;;;;;13.10;9.23;;;11.20;99.90;;;;;;5056660;28;20079;-76
2022/11/16 02:58:00;;;;;;;12.98;8.63;;;11.20;99.90;;;;;;5063583;28;20045;-76
2022/11/16 03:00:32;;;;;;;14.80;9.50;;;11.20;99.90;;;;;;5042136;28;20029;-76
2022/11/16 03:03:19;;;;;;;13.63;9.15;;;11.20;99.90;;;;;;5035642;28;20049;-75
2022/11/16 03:06:02;;;;;;;14.07;8.65;;;11.20;99.90;;;;;;5028391;28;20128;-76
2022/11/16 03:08:31;;;;;;;14.63;9.30;;;11.20;99.90;;;;;;5055310;28;20040;-76
2022/11/16 03:13:49;;;;;;;12.55;8.90;;;11.20;99.90;;;;;;5052766;28;20122;-76
2022/11/16 03:16:30;;;;;;;14.55;9.15;;;11.20;99.90;;;;;;5057808;28;20492;-76
2022/11/16 03:18:58;;;;;;;13.25;9.15;;;11.10;99.90;;;;;;5044926;28;20062;-76
2022/11/16 03:21:50;;;;;;;14.48;9.68;;;11.20;99.90;;;;;;5053463;28;20689;-76
2022/11/16 03:24:15;;;;;;;14.10;9.23;;;11.20;99.90;;;;;;5052887;28;20095;-76
2022/11/16 03:26:57;;;;;;;15.00;9.50;;;11.20;99.90;;;;;;5041526;28;20080;-75
2022/11/16 03:29:29;;;;;;;13.23;9.40;;;11.20;99.90;;;;;;5031648;28;20060;-76
2022/11/16 03:32:01;;;;;;;13.70;9.27;;;11.20;99.90;;;;;;5043302;28;20512;-75
2022/11/16 03:34:32;;;;;;;12.57;9.55;;;11.20;99.90;;;;;;5031262;28;20042;-76
2022/11/16 03:37:00;;;;;;;13.82;9.23;;;11.20;99.90;;;;;;5055305;28;20025;-76
2022/11/16 03:39:32;;;;;;;12.48;9.48;;;11.20;99.90;;;;;;5066083;28;20400;-77
2022/11/16 03:42:00;;;;;;;13.65;9.07;;;11.20;99.90;;;;;;5045938;28;20178;-76
2022/11/16 03:44:26;;;;;;;13.43;9.35;;;11.20;99.90;;;;;;5033360;28;20041;-76
2022/11/16 03:46:52;;;;;;;14.73;8.75;;;11.20;99.90;;;;;;5035436;28;20045;-76
2022/11/16 03:49:22;;;;;;;12.15;9.00;;;11.20;99.90;;;;;;5044251;28;20037;-76
2022/11/16 03:51:48;;;;;;;14.23;9.45;;;11.20;99.90;;;;;;5052717;28;20512;-75
2022/11/16 03:54:14;;;;;;;12.35;8.90;;;11.20;99.90;;;;;;5052468;28;20083;-76
2022/11/16 03:56:40;;;;;;;13.95;9.45;;;11.20;99.90;;;;;;5036752;28;20041;-76
2022/11/16 03:59:05;;;;;;;13.25;9.63;;;11.20;99.90;;;;;;5061838;28;20047;-75
2022/11/16 04:01:31;;;;;;;14.60;9.77;;;11.20;99.90;;;;;;5056443;28;20433;-75
2022/11/16 04:03:57;;;;;;;12.10;9.15;;;11.20;99.90;;;;;;5034372;28;20052;-75
2022/11/16 04:24:11;;;;;;;11.88;8.98;;;11.20;99.90;;;;;;5052103;28;20443;-76
2022/11/16 04:25:54;;;;;;;12.57;9.00;;;11.20;99.90;;;;;;5033347;28;20051;-76
2022/11/16 04:28:23;;;;;;;13.43;9.88;;;11.20;99.90;;;;;;5047737;28;20242;-75
2022/11/16 04:39:05;;;;;;;10.57;8.38;;;11.20;99.90;;;;;;5026528;28;20072;-76
2022/11/16 04:44:16;;;;;;;12.27;8.93;;;11.20;99.90;;;;;;5047959;28;20506;-76
2022/11/16 04:49:27;;;;;;;13.30;9.40;;;11.20;99.90;;;;;;5038272;28;20076;-76
2022/11/16 04:51:53;;;;;;;14.57;9.40;;;11.20;99.90;;;;;;5030216;28;20073;-76
2022/11/16 04:54:19;;;;;;;13.60;9.20;;;11.20;99.90;;;;;;5033618;28;20099;-76
2022/11/16 04:56:44;;;;;;;12.05;8.85;;;11.20;99.90;;;;;;5048667;28;20099;-76
2022/11/16 04:59:10;;;;;;;11.38;8.93;;;11.20;99.90;;;;;;5058428;28;20098;-75
2022/11/16 05:04:20;;;;;;;11.63;8.98;;;11.20;99.90;;;;;;5027817;28;20055;-76
2022/11/16 05:06:46;;;;;;;11.82;8.52;;;11.20;99.90;;;;;;5045152;28;20044;-75
2022/11/16 05:09:12;;;;;;;13.70;9.50;;;11.20;99.90;;;;;;5040460;28;20104;-76
2022/11/16 05:11:37;;;;;;;13.60;9.48;;;11.30;99.90;;;;;;5051348;28;20527;-75
2022/11/16 05:14:04;;;;;;;11.65;9.10;;;11.30;99.90;;;;;;5049925;28;20673;-76
2022/11/16 05:16:30;;;;;;;12.00;9.95;;;11.40;99.90;;;;;;5058952;28;20040;-77
2022/11/16 05:21:40;;;;;;;14.60;10.30;;;11.20;99.90;;;;;;5051023;28;20076;-76
2022/11/16 05:26:49;;;;;;;15.10;9.93;;;11.20;99.90;;;;;;5033701;28;20048;-75
2022/11/16 05:29:15;;;;;;;13.00;10.00;;;11.20;99.90;;;;;;5052352;28;20033;-75
2022/11/16 05:31:41;;;;;;;16.58;11.15;;;11.30;99.90;;;;;;5050002;28;20128;-75
2022/11/16 05:34:08;;;;;;;12.85;9.93;;;11.20;99.90;;;;;;5049837;28;20041;-75
2022/11/16 05:36:33;;;;;;;14.95;11.00;;;11.20;99.90;;;;;;5029160;28;20051;-75
2022/11/16 05:38:59;;;;;;;14.77;11.73;;;11.20;99.90;;;;;;5050350;28;20112;-75
2022/11/16 05:41:25;;;;;;;16.75;11.75;;;11.20;99.90;;;;;;5045682;28;20034;-75
2022/11/16 05:43:50;;;;;;;16.15;11.25;;;11.40;99.90;;;;;;5037895;28;20065;-76
2022/11/16 05:46:16;;;;;;;15.32;11.73;;;11.20;99.90;;;;;;5032351;28;20444;-76
2022/11/16 05:48:41;;;;;;;20.27;12.73;;;11.20;99.90;;;;;;5031560;28;20056;-76
2022/11/16 05:51:07;;;;;;;17.08;12.52;;;11.20;99.90;;;;;;5060715;28;20039;-76
2022/11/16 05:53:33;;;;;;;17.00;11.43;;;11.20;99.90;;;;;;5013764;28;20469;-76
2022/11/16 05:55:58;;;;;;;16.02;10.57;;;11.20;99.90;;;;;;5040351;28;20045;-76
2022/11/16 05:58:24;;;;;;;16.73;9.45;;;11.20;99.90;;;;;;5058326;28;20048;-75
2022/11/16 06:00:50;;;;;;;11.02;7.82;;;11.20;99.90;;;;;;5053681;28;20493;-75
2022/11/16 06:03:15;;;;;;;11.52;8.65;;;11.20;99.90;;;;;;5053583;28;20051;-76
2022/11/16 06:05:41;;;;;;;15.95;9.02;;;11.20;99.90;;;;;;5054604;28;20033;-75
2022/11/16 06:08:07;;;;;;;12.43;8.85;;;11.20;99.90;;;;;;5035506;28;20055;-76
2022/11/16 06:10:33;;;;;;;12.82;8.73;;;11.20;99.90;;;;;;5029658;28;20044;-75
2022/11/16 06:12:58;;;;;;;11.32;8.82;;;11.20;99.90;;;;;;5025776;28;20041;-76
2022/11/16 06:15:24;;;;;;;10.63;8.10;;;11.20;99.90;;;;;;5039927;28;20034;-75
2022/11/16 06:17:50;;;;;;;11.43;7.60;;;11.20;99.90;;;;;;5046041;28;20483;-76
2022/11/16 06:20:16;;;;;;;10.07;7.78;;;11.20;99.90;;;;;;5042545;28;20033;-76
2022/11/16 06:22:41;;;;;;;10.88;7.78;;;11.20;99.90;;;;;;5034509;28;20095;-76
2022/11/16 06:25:07;;;;;;;9.95;7.72;;;11.20;99.90;;;;;;5027333;28;20055;-76
2022/11/16 06:27:33;;;;;;;11.95;7.80;;;11.20;99.90;;;;;;5029081;28;20053;-76
2022/11/16 06:29:59;;;;;;;11.48;7.00;;;11.20;99.90;;;;;;5044661;28;21166;-76
2022/11/16 06:32:25;;;;;;;11.32;8.30;;;11.20;99.90;;;;;;5019720;28;20088;-76
2022/11/16 06:34:51;;;;;;;10.05;7.38;;;11.20;99.90;;;;;;5038462;28;20497;-76
2022/11/16 06:37:17;;;;;;;10.68;7.53;;;11.20;99.90;;;;;;5037277;28;20033;-75
2022/11/16 06:39:43;;;;;;;10.27;7.20;;;11.10;99.90;;;;;;5019853;28;20046;-76
2022/11/16 06:42:09;;;;;;;9.23;6.97;;;11.20;99.90;;;;;;5031369;28;20048;-75
2022/11/16 06:44:35;;;;;;;10.88;7.53;;;11.20;99.90;;;;;;5018665;28;20047;-76
2022/11/16 06:47:01;;;;;;;10.35;6.88;;;11.10;99.90;;;;;;5037263;28;20051;-76
2022/11/16 06:49:27;;;;;;;11.70;7.72;;;11.20;99.90;;;;;;5066026;28;20481;-75
2022/11/16 06:51:53;;;;;;;12.00;8.02;;;11.10;99.90;;;;;;5036106;28;20121;-74
2022/11/16 06:54:18;;;;;;;11.40;7.88;;;11.10;99.90;;;;;;5054042;28;20390;-75
2022/11/16 06:56:44;;;;;;;10.80;7.55;;;11.10;99.90;;;;;;5043472;28;20055;-75
2022/11/16 06:59:10;;;;;;;10.90;8.18;;;11.10;99.90;;;;;;5042752;28;20445;-75
2022/11/16 07:01:36;;;;;;;11.50;8.52;;;11.10;99.90;;;;;;5038795;28;20045;-75
2022/11/16 07:04:01;;;;;;;11.70;9.18;;;11.10;99.90;;;;;;5023235;28;20040;-75
2022/11/16 07:06:28;;;;;;;11.93;9.27;;;11.10;99.90;;;;;;5041144;28;20037;-75
2022/11/16 07:08:54;;;;;;;11.45;9.25;;;11.10;99.90;;;;;;5044883;28;20045;-75
2022/11/16 07:11:20;;;;;;;12.95;9.68;;;11.10;99.90;;;;;;5052588;28;21202;-75
2022/11/16 07:13:47;;;;;;;13.68;9.07;;;11.10;99.90;;;;;;5051985;28;20120;-75
2022/11/16 07:16:12;;;;;;;11.25;8.73;;;11.10;99.90;;;;;;5043052;28;20037;-76
2022/11/16 07:18:40;;;;;;;11.13;8.45;;;11.10;99.90;;;;;;5033882;28;20481;-75
2022/11/16 07:21:14;;;;;;;13.40;8.60;;;11.10;99.90;;;;;;5059728;28;20120;-75
2022/11/16 07:23:39;;;;;;;11.82;9.18;;;11.10;99.90;;;;;;5046177;28;20037;-74
2022/11/16 07:26:06;;;;;;;11.55;9.07;;;11.10;99.90;;;;;;5034138;28;20033;-75
2022/11/16 07:28:32;;;;;;;10.48;8.60;;;11.10;99.90;;;;;;5042396;28;20044;-75
2022/11/16 07:31:06;;;;;;;13.48;9.68;;;11.10;99.90;;;;;;5034796;28;20041;-75
2022/11/16 07:33:33;;;;;;;11.55;9.00;;;11.10;99.90;;;;;;5035615;28;20041;-75
2022/11/16 07:36:05;;;;;;;12.25;9.50;;;11.10;99.90;;;;;;5032057;28;20052;-75
2022/11/16 07:38:31;;;;;;;14.05;9.18;;;11.10;99.90;;;;;;5050799;28;20088;-75
2022/11/16 07:41:00;;;;;;;13.05;9.07;;;11.10;99.90;;;;;;5051494;28;20051;-75
2022/11/16 07:43:31;;;;;;;11.90;8.95;;;11.10;99.90;;;;;;5052601;28;20037;-76
2022/11/16 07:46:17;;;;;;;12.73;8.95;;;11.10;99.90;;;;;;5031455;28;20041;-75
2022/11/16 07:48:43;;;;;;;11.88;8.98;;;11.10;99.90;;;;;;5051960;28;20548;-76
2022/11/16 07:51:11;;;;;;;11.73;8.43;;;11.10;99.90;;;;;;5044312;28;20512;-76
2022/11/16 07:53:37;;;;;;;11.70;8.00;;;11.10;99.90;;;;;;5040439;28;20409;-75
2022/11/16 07:56:04;;;;;;;10.40;7.80;;;11.10;99.90;;;;;;5042703;28;20029;-76
2022/11/16 07:58:32;;;;;;;10.70;7.25;;;11.00;99.90;;;;;;5042033;28;20044;-75
2022/11/16 08:01:12;;;;;;;10.77;7.72;;;11.10;99.90;;;;;;5045338;28;20098;-75
2022/11/16 08:03:38;;;;;;;8.98;7.13;;;11.10;99.90;;;;;;5044532;28;20054;-75
2022/11/16 08:06:12;;;;;;;11.95;7.65;;;11.10;99.90;;;;;;5051043;28;20067;-75
2022/11/16 08:08:38;;;;;;;9.95;6.90;;;11.10;99.90;;;;;;5048899;28;20508;-75
2022/11/16 08:11:06;;;;;;;10.25;7.20;;;11.10;99.90;;;;;;5052201;28;20037;-76
2022/11/16 08:13:34;;;;;;;11.82;7.32;;;11.10;99.90;;;;;;5030695;28;20041;-75
2022/11/16 08:16:17;;;;;;;9.15;7.30;;;11.10;99.90;;;;;;5026575;28;20393;-76
2022/11/16 08:18:43;;;;;;;11.20;7.10;;;11.10;99.90;;;;;;5028136;28;20049;-75
2022/11/16 08:21:11;;;;;;;12.23;7.30;;;11.20;99.90;;;;;;5017731;28;20044;-75
2022/11/16 08:23:39;;;;;;;10.57;7.65;;;11.20;99.90;;;;;;5027643;28;20037;-75
2022/11/16 08:26:14;;;;;;;13.63;7.85;;;11.20;99.90;;;;;;5043745;28;20401;-76
2022/11/16 08:28:41;;;;;;;11.70;7.50;;;11.20;99.90;;;;;;5016621;28;20045;-75
2022/11/16 08:31:15;;;;;;;10.82;7.40;;;11.20;99.90;;;;;;5048459;28;20060;-75
2022/11/16 08:33:42;;;;;;;11.45;7.63;;;11.30;99.90;;;;;;5047626;28;20424;-75
2022/11/16 08:36:11;;;;;;;13.48;8.00;;;11.30;99.90;;;;;;5045667;28;20389;-74
2022/11/16 08:38:37;;;;;;;12.30;7.53;;;11.30;99.90;;;;;;5051168;28;20037;-75
2022/11/16 08:41:03;;;;;;;17.10;8.52;;;11.30;99.90;;;;;;5031631;28;20570;-75
2022/11/16 08:43:29;;;;;;;17.17;8.77;;;11.40;99.90;;;;;;5042785;28;20072;-75
2022/11/16 08:45:56;;;;;;;11.45;8.38;;;11.40;99.90;;;;;;5033672;28;20120;-75
2022/11/16 08:48:22;;;;;;;13.85;9.25;;;11.40;99.90;;;;;;5027401;28;20038;-76
2022/11/16 08:50:47;;;;;;;16.70;10.13;;;11.50;99.90;;;;;;5048483;28;20112;-76
2022/11/16 08:53:14;;;;;;;14.10;9.80;;;11.50;99.90;;;;;;5036072;28;20397;-75
2022/11/16 08:55:41;;;;;;;12.75;9.50;;;11.50;99.90;;;;;;5049353;28;20171;-74
2022/11/16 08:58:07;;;;;;;13.55;10.30;;;11.50;99.90;;;;;;5031597;28;20045;-74
2022/11/16 09:00:33;;;;;;;18.63;9.52;;;11.50;99.90;;;;;;5046162;28;20091;-75
2022/11/16 09:02:58;;;;;;;14.55;10.20;;;11.60;99.90;;;;;;5050174;28;20510;-75
2022/11/16 09:05:24;;;;;;;16.90;10.77;;;11.60;99.90;;;;;;5054329;28;20039;-75
2022/11/16 09:07:49;;;;;;;15.20;10.85;;;11.50;99.90;;;;;;5049748;28;20044;-75
2022/11/16 09:10:17;;;;;;;15.90;10.95;;;11.60;99.90;;;;;;5060909;28;20040;-75
2022/11/16 09:12:43;;;;;;;20.88;12.95;;;11.60;99.90;;;;;;5042617;28;20477;-75
2022/11/16 09:15:09;;;;;;;19.95;12.35;;;11.60;99.90;;;;;;5050384;28;20029;-75
2022/11/16 09:17:34;;;;;;;20.20;13.10;;;11.60;99.90;;;;;;5032859;28;20040;-75
2022/11/16 09:20:00;;;;;;;19.50;12.35;;;11.60;99.90;;;;;;5055070;28;20024;-75
2022/11/16 09:22:25;;;;;;;18.13;12.43;;;11.60;99.90;;;;;;5061635;28;20044;-75
2022/11/16 09:24:51;;;;;;;23.00;12.75;;;11.60;99.90;;;;;;5051278;28;20417;-75
2022/11/16 09:27:17;;;;;;;20.65;12.63;;;11.70;99.90;;;;;;5045162;28;20127;-75
2022/11/16 09:29:43;;;;;;;18.73;12.50;;;11.70;99.90;;;;;;5041224;28;20041;-75
2022/11/16 09:32:08;;;;;;;21.90;13.68;;;11.70;99.90;;;;;;5058004;28;20041;-75
2022/11/16 09:34:35;;;;;;;20.45;12.93;;;11.70;99.90;;;;;;5041949;28;20370;-75
2022/11/16 09:37:01;;;;;;;20.98;13.35;;;11.60;99.90;;;;;;5035236;28;20032;-75
2022/11/16 09:39:26;;;;;;;21.10;12.52;;;11.70;99.90;;;;;;5045662;28;20033;-76
2022/11/16 09:42:17;;;;;;;19.42;12.63;;;11.60;99.90;;;;;;5051122;28;20102;-75
2022/11/16 09:44:48;;;;;;;19.13;11.98;;;11.60;99.90;;;;;;5042552;28;20048;-75
2022/11/16 09:47:18;;;;;;;15.32;11.40;;;11.60;99.90;;;;;;5020681;28;20041;-75
2022/11/16 09:49:52;;;;;;;16.05;10.23;;;12.10;99.90;;;;;;5040633;28;20041;-75
2022/11/16 09:52:37;;;;;;;17.95;10.40;;;11.60;99.90;;;;;;5049577;28;20079;-76
2022/11/16 09:55:32;;;;;;;16.17;8.65;;;11.60;99.90;;;;;;5037720;28;20047;-76
2022/11/16 09:58:00;;;;;;;17.58;9.13;;;11.60;99.90;;;;;;5044528;28;20033;-75
2022/11/16 10:00:27;;;;;;;14.70;9.20;;;11.60;99.90;;;;;;5045347;28;20033;-75
2022/11/16 10:03:10;;;;;;;18.10;8.68;;;11.60;99.90;;;;;;5050214;28;20047;-75
2022/11/16 10:05:42;;;;;;;16.92;8.10;;;11.60;99.90;;;;;;5031205;28;20052;-75
2022/11/16 10:08:21;;;;;;;12.30;7.82;;;11.50;99.90;;;;;;5041298;28;20045;-75
2022/11/16 10:11:17;;;;;;;15.23;7.43;;;11.50;99.90;;;;;;5038423;28;20117;-75
2022/11/16 10:14:14;;;;;;;13.27;6.50;;;11.40;99.90;;;;;;5038014;28;20421;-75
2022/11/16 10:16:45;;;;;;;12.63;6.63;;;11.40;99.90;;;;;;5039014;28;20057;-75
2022/11/16 10:19:17;;;;;;;13.93;6.43;;;11.50;99.90;;;;;;5050367;28;20045;-75
2022/11/16 10:22:25;;;;;;;13.93;6.55;;;11.50;99.90;;;;;;5016287;28;20041;-75
2022/11/16 10:24:59;;;;;;;10.55;5.20;;;11.50;99.90;;;;;;4948140;28;20050;-76
2022/11/16 10:27:51;;;;;;;11.05;4.90;;;11.40;99.90;;;;;;5043242;28;20057;-76
2022/11/16 10:30:18;;;;;;;13.40;4.68;;;11.40;99.90;;;;;;5023962;28;20092;-76
2022/11/16 10:33:15;;;;;;;11.75;4.80;;;11.40;99.90;;;;;;5039945;28;20045;-76
2022/11/16 10:35:53;;;;;;;7.78;4.28;;;11.40;99.90;;;;;;5034167;28;20029;-76
2022/11/16 10:38:32;;;;;;;10.52;4.60;;;11.40;99.90;;;;;;5016153;28;20044;-76
2022/11/16 10:41:13;;;;;;;11.43;4.65;;;11.50;99.90;;;;;;5032483;28;20037;-76
2022/11/16 10:43:40;;;;;;;11.70;4.35;;;11.50;99.90;;;;;;5036442;28;20436;-76
2022/11/16 10:46:18;;;;;;;11.65;5.60;;;11.50;99.90;;;;;;5047632;28;20037;-76
2022/11/16 10:49:02;;;;;;;10.35;4.10;;;11.50;99.90;;;;;;5050878;28;20048;-76
2022/11/16 10:51:27;;;;;;;8.82;4.00;;;11.50;99.90;;;;;;5029831;28;20068;-77
2022/11/16 10:53:54;;;;;;;12.52;4.47;;;11.60;99.90;;;;;;5032965;28;20044;-77
2022/11/16 10:56:26;;;;;;;10.68;4.15;;;11.40;99.90;;;;;;5032892;28;20120;-76
2022/11/16 10:58:56;;;;;;;10.30;4.20;;;11.40;99.90;;;;;;5035746;28;20443;-76
2022/11/16 11:01:56;;;;;;;13.35;4.38;;;11.30;99.90;;;;;;5054398;28;20489;-76
2022/11/16 11:04:27;;;;;;;9.27;4.28;;;11.30;99.90;;;;;;5040745;28;20523;-76
2022/11/16 11:06:58;;;;;;;10.48;4.60;;;11.30;99.90;;;;;;5035374;28;20041;-76
2022/11/16 11:09:37;;;;;;;12.88;4.50;;;11.30;99.90;;;;;;5037041;28;20041;-76
2022/11/16 11:15:09;;;;;;;11.80;4.15;;;11.40;99.90;;;;;;5038309;28;20056;-77
2022/11/16 11:17:36;;;;;;;13.43;4.15;;;11.40;99.90;;;;;;5035953;28;20130;-76
2022/11/16 11:20:14;;;;;;;13.00;4.30;;;11.40;99.90;;;;;;5032796;28;20124;-77
2022/11/16 11:22:55;;;;;;;12.70;4.30;;;11.50;99.90;;;;;;5045466;28;20071;-76
2022/11/16 11:25:31;;;;;;;13.32;4.00;;;11.60;99.90;;;;;;5029189;28;20045;-77
2022/11/16 11:28:18;;;;;;;13.50;4.72;;;11.60;99.90;;;;;;5030730;28;20048;-76
2022/11/16 11:31:00;;;;;;;12.65;4.22;;;11.60;99.90;;;;;;5035260;28;20057;-77
2022/11/16 11:33:31;;;;;;;11.02;4.40;;;11.70;99.90;;;;;;5050098;28;20036;-76
2022/11/16 11:36:04;;;;;;;9.77;4.10;;;11.80;99.90;;;;;;5031491;28;20049;-77
2022/11/16 11:38:31;;;;;;;11.23;4.50;;;11.80;99.90;;;;;;5040037;28;20040;-77
2022/11/16 11:41:03;;;;;;;12.63;4.30;;;11.80;99.90;;;;;;5036743;28;20116;-77
2022/11/16 11:43:32;;;;;;;13.00;4.35;;;11.90;99.90;;;;;;5031092;28;20048;-76
2022/11/16 11:46:07;;;;;;;12.07;3.92;;;12.00;99.90;;;;;;5031061;28;20077;-76
2022/11/16 11:48:50;;;;;;;11.68;4.00;;;12.00;99.90;;;;;;5022491;28;20033;-77
2022/11/16 11:51:41;;;;;;;13.23;3.50;;;12.10;99.90;;;;;;5040680;28;20056;-76
2022/11/16 11:54:23;;;;;;;12.52;3.63;;;12.10;99.90;;;;;;5044278;28;20305;-76
2022/11/16 11:56:49;;;;;;;10.13;4.03;;;12.20;99.90;;;;;;5044773;28;20389;-78
2022/11/16 11:59:19;;;;;;;10.73;3.28;;;12.20;99.90;;;;;;5044560;28;20525;-77
2022/11/16 12:01:58;;;;;;;14.65;4.00;;;12.20;99.90;;;;;;5040517;28;20552;-77
2022/11/16 12:04:41;;;;;;;15.60;3.90;;;12.10;99.90;;;;;;5030244;28;20397;-77
2022/11/16 12:07:22;;;;;;;9.63;3.63;;;12.10;99.90;;;;;;5023894;28;20044;-78
2022/11/16 12:10:15;;;;;;;11.82;4.00;;;12.10;99.90;;;;;;5029651;28;20052;-77
2022/11/16 12:12:52;;;;;;;10.70;4.05;;;12.10;99.90;;;;;;5024763;28;20731;-76
2022/11/16 12:15:52;;;;;;;14.55;3.90;;;12.20;99.90;;;;;;5046173;28;20500;-76
2022/11/16 12:18:36;;;;;;;9.98;3.38;;;12.20;99.90;;;;;;5055569;28;20040;-76
2022/11/16 12:21:13;;;;;;;8.52;3.65;;;12.30;99.90;;;;;;5039355;28;20037;-76
2022/11/16 12:23:51;;;;;;;8.52;3.40;;;12.30;99.90;;;;;;5054185;28;20048;-76
2022/11/16 12:26:35;;;;;;;14.68;4.05;;;12.30;99.90;;;;;;5039488;28;20489;-76
2022/11/16 12:29:30;;;;;;;8.73;3.35;;;12.30;99.90;;;;;;5043635;28;20053;-76
2022/11/16 12:32:17;;;;;;;11.30;3.80;;;12.40;99.90;;;;;;5037037;28;20045;-77
2022/11/16 12:34:45;;;;;;;15.18;3.47;;;12.40;99.90;;;;;;5042304;28;20040;-77
2022/11/16 12:37:32;;;;;;;13.23;3.42;;;12.40;99.90;;;;;;5035680;28;20048;-76
2022/11/16 12:40:22;;;;;;;11.18;3.50;;;12.40;99.90;;;;;;5046426;28;20047;-76
2022/11/16 12:43:13;;;;;;;12.40;3.40;;;12.40;99.90;;;;;;5016286;28;20037;-76
2022/11/16 12:45:52;;;;;;;9.88;3.40;;;12.40;99.90;;;;;;5037524;28;20045;-76
2022/11/16 12:48:21;;;;;;;11.85;3.30;;;12.40;99.90;;;;;;5016578;28;20047;-77
2022/11/16 12:51:06;;;;;;;11.30;3.25;;;12.50;99.90;;;;;;5036622;28;20056;-75
2022/11/16 12:53:49;;;;;;;9.38;2.70;;;12.50;99.90;;;;;;5042736;28;20045;-75
2022/11/16 12:56:46;;;;;;;12.90;3.20;;;12.70;99.90;;;;;;5063418;28;20043;-76
2022/11/16 12:59:27;;;;;;;12.07;3.35;;;12.70;99.90;;;;;;5049580;28;20105;-75
2022/11/16 13:02:28;;;;;;;15.23;3.03;;;12.90;99.90;;;;;;5049648;28;20140;-75
2022/11/16 13:05:11;;;;;;;12.75;2.88;;;12.90;99.90;;;;;;5033914;28;20037;-76
2022/11/16 13:07:51;;;;;;;11.05;2.65;;;12.90;99.90;;;;;;5037335;28;20051;-75
2022/11/16 13:10:26;;;;;;;13.65;3.47;;;12.80;99.90;;;;;;5031541;28;20110;-77
2022/11/16 13:12:57;;;;;;;10.85;2.50;;;12.80;99.90;;;;;;5043329;28;20455;-76
2022/11/16 13:15:32;;;;;;;12.88;3.03;;;12.90;99.90;;;;;;5051360;28;20091;-75
2022/11/16 13:18:02;;;;;;;11.23;2.60;;;12.90;99.90;;;;;;5055061;28;20041;-76
2022/11/16 13:20:48;;;;;;;10.45;2.60;;;12.80;99.90;;;;;;5032819;28;20037;-76
2022/11/16 13:23:21;;;;;;;12.23;2.40;;;12.70;99.90;;;;;;5039686;28;20371;-76
2022/11/16 13:26:03;;;;;;;15.98;3.60;;;12.90;99.90;;;;;;5057590;28;20040;-75
2022/11/16 13:28:49;;;;;;;8.23;2.03;;;12.90;99.90;;;;;;5017471;28;20286;-76
2022/11/16 13:31:40;;;;;;;10.90;2.20;;;12.90;99.90;;;;;;5037254;28;20040;-76
2022/11/16 13:34:22;;;;;;;12.27;2.80;;;12.80;99.90;;;;;;5049585;28;20136;-75
2022/11/16 13:36:48;;;;;;;11.60;2.47;;;13.00;99.90;;;;;;5058736;28;20041;-76
2022/11/16 13:39:17;;;;;;;14.90;2.60;;;13.30;99.90;;;;;;5054991;28;20087;-76
2022/11/16 13:42:09;;;;;;;10.18;2.20;;;13.60;99.90;;;;;;5051885;28;20087;-76
2022/11/16 13:44:35;;;;;;;12.80;2.58;;;13.90;99.90;;;;;;5029388;28;20045;-76
2022/11/16 13:47:22;;;;;;;13.73;2.33;;;14.10;99.90;;;;;;5034285;28;20053;-76